sensor_id;sensor_type;location;lat;lon;timestamp;pressure;altitude;pressure_sealevel;temperature
74750;BMP280;63269;53.330;-6.288;2023-03-24T00:01:04;98427.75;;;20.32
74750;BMP280;63269;53.330;-6.288;2023-03-24T00:03:31;98430.41;;;20.32
74750;BMP280;63269;53.330;-6.288;2023-03-24T00:05:58;98431.13;;;20.33
74750;BMP280;63269;53.330;-6.288;2023-03-24T00:08:27;98444.97;;;20.31
74750;BMP280;63269;53.330;-6.288;2023-03-24T00:10:57;98452.94;;;20.31
74750;BMP280;63269;53.330;-6.288;2023-03-24T00:13:24;98445.44;;;20.30
74750;BMP280;63269;53.330;-6.288;2023-03-24T00:15:49;98452.94;;;20.31
74750;BMP280;63269;53.330;-6.288;2023-03-24T00:18:15;98442.75;;;20.30
74750;BMP280;63269;53.330;-6.288;2023-03-24T00:20:40;98462.59;;;20.29
74750;BMP280;63269;53.330;-6.288;2023-03-24T00:23:06;98450.50;;;20.28
74750;BMP280;63269;53.330;-6.288;2023-03-24T00:25:31;98450.03;;;20.29
74750;BMP280;63269;53.330;-6.288;2023-03-24T00:28:00;98447.13;;;20.27
74750;BMP280;63269;53.330;-6.288;2023-03-24T00:30:27;98445.66;;;20.26
74750;BMP280;63269;53.330;-6.288;2023-03-24T00:32:53;98448.31;;;20.26
74750;BMP280;63269;53.330;-6.288;2023-03-24T00:35:19;98474.94;;;20.26
74750;BMP280;63269;53.330;-6.288;2023-03-24T00:37:44;98470.09;;;20.25
74750;BMP280;63269;53.330;-6.288;2023-03-24T00:40:15;98464.75;;;20.25
74750;BMP280;63269;53.330;-6.288;2023-03-24T00:42:42;98466.72;;;20.24
74750;BMP280;63269;53.330;-6.288;2023-03-24T00:45:13;98466.72;;;20.24
74750;BMP280;63269;53.330;-6.288;2023-03-24T00:47:39;98464.56;;;20.23
74750;BMP280;63269;53.330;-6.288;2023-03-24T00:50:08;98459.44;;;20.25
74750;BMP280;63269;53.330;-6.288;2023-03-24T00:52:34;98447.38;;;20.24
74750;BMP280;63269;53.330;-6.288;2023-03-24T00:55:02;98453.41;;;20.24
74750;BMP280;63269;53.330;-6.288;2023-03-24T00:57:29;98453.41;;;20.24
74750;BMP280;63269;53.330;-6.288;2023-03-24T01:00:04;98457.53;;;20.25
74750;BMP280;63269;53.330;-6.288;2023-03-24T01:02:43;98461.38;;;20.24
74750;BMP280;63269;53.330;-6.288;2023-03-24T01:05:11;98452.94;;;20.26
74750;BMP280;63269;53.330;-6.288;2023-03-24T01:07:38;98460.19;;;20.25
74750;BMP280;63269;53.330;-6.288;2023-03-24T01:10:12;98449.53;;;20.25
74750;BMP280;63269;53.330;-6.288;2023-03-24T01:12:38;98466.97;;;20.26
74750;BMP280;63269;53.330;-6.288;2023-03-24T01:15:07;98473.50;;;20.25
74750;BMP280;63269;53.330;-6.288;2023-03-24T01:17:33;98474.22;;;20.26
74750;BMP280;63269;53.330;-6.288;2023-03-24T01:19:59;98467.69;;;20.27
74750;BMP280;63269;53.330;-6.288;2023-03-24T01:22:29;98466.47;;;20.28
74750;BMP280;63269;53.330;-6.288;2023-03-24T01:24:55;98454.88;;;20.25
74750;BMP280;63269;53.330;-6.288;2023-03-24T01:27:20;98463.56;;;20.26
74750;BMP280;63269;53.330;-6.288;2023-03-24T01:29:46;98468.91;;;20.26
74750;BMP280;63269;53.330;-6.288;2023-03-24T01:32:11;98469.63;;;20.26
74750;BMP280;63269;53.330;-6.288;2023-03-24T01:34:37;98472.75;;;20.25
74750;BMP280;63269;53.330;-6.288;2023-03-24T01:37:03;98486.34;;;20.27
74750;BMP280;63269;53.330;-6.288;2023-03-24T01:39:29;98472.03;;;20.24
74750;BMP280;63269;53.330;-6.288;2023-03-24T01:41:55;98478.06;;;20.25
74750;BMP280;63269;53.330;-6.288;2023-03-24T01:44:32;98482.19;;;20.26
74750;BMP280;63269;53.330;-6.288;2023-03-24T01:46:59;98480.72;;;20.25
74750;BMP280;63269;53.330;-6.288;2023-03-24T01:49:34;98495.50;;;20.26
74750;BMP280;63269;53.330;-6.288;2023-03-24T01:52:02;98491.38;;;20.25
74750;BMP280;63269;53.330;-6.288;2023-03-24T01:57:01;98500.84;;;20.26
74750;BMP280;63269;53.330;-6.288;2023-03-24T01:59:29;98495.25;;;20.24
74750;BMP280;63269;53.330;-6.288;2023-03-24T02:01:56;98496.47;;;20.23
74750;BMP280;63269;53.330;-6.288;2023-03-24T02:04:38;98497.19;;;20.23
74750;BMP280;63269;53.330;-6.288;2023-03-24T02:07:28;98497.69;;;20.22
74750;BMP280;63269;53.330;-6.288;2023-03-24T02:09:55;98483.38;;;20.19
74750;BMP280;63269;53.330;-6.288;2023-03-24T02:12:21;98495.50;;;20.20
74750;BMP280;63269;53.330;-6.288;2023-03-24T02:14:47;98480.72;;;20.19
74750;BMP280;63269;53.330;-6.288;2023-03-24T02:44:50;98485.81;;;20.11
74750;BMP280;63269;53.330;-6.288;2023-03-24T02:47:37;98475.63;;;20.10
74750;BMP280;63269;53.330;-6.288;2023-03-24T02:50:27;98490.41;;;20.11
74750;BMP280;63269;53.330;-6.288;2023-03-24T02:53:31;98471.53;;;20.09
74750;BMP280;63269;53.330;-6.288;2023-03-24T02:56:11;98469.59;;;20.09
74750;BMP280;63269;53.330;-6.288;2023-03-24T02:58:59;98477.56;;;20.09
74750;BMP280;63269;53.330;-6.288;2023-03-24T03:01:40;98479.50;;;20.09
74750;BMP280;63269;53.330;-6.288;2023-03-24T03:04:14;98486.78;;;20.08
74750;BMP280;63269;53.330;-6.288;2023-03-24T03:06:44;98476.59;;;20.07
74750;BMP280;63269;53.330;-6.288;2023-03-24T03:09:15;98487.50;;;20.09
74750;BMP280;63269;53.330;-6.288;2023-03-24T03:11:46;98486.78;;;20.08
74750;BMP280;63269;53.330;-6.288;2023-03-24T03:14:29;98489.44;;;20.08
74750;BMP280;63269;53.330;-6.288;2023-03-24T03:17:16;98489.44;;;20.08
74750;BMP280;63269;53.330;-6.288;2023-03-24T03:19:47;98479.03;;;20.05
74750;BMP280;63269;53.330;-6.288;2023-03-24T03:22:18;98489.16;;;20.06
74750;BMP280;63269;53.330;-6.288;2023-03-24T03:24:48;98479.78;;;20.05
74750;BMP280;63269;53.330;-6.288;2023-03-24T03:27:20;98475.88;;;20.06
74750;BMP280;63269;53.330;-6.288;2023-03-24T03:29:51;98485.09;;;20.05
74750;BMP280;63269;53.330;-6.288;2023-03-24T03:32:24;98475.16;;;20.06
74750;BMP280;63269;53.330;-6.288;2023-03-24T03:35:00;98475.16;;;20.06
74750;BMP280;63269;53.330;-6.288;2023-03-24T03:37:36;98472.47;;;20.06
74750;BMP280;63269;53.330;-6.288;2023-03-24T03:40:07;98469.13;;;20.05
74750;BMP280;63269;53.330;-6.288;2023-03-24T03:42:34;98469.13;;;20.05
74750;BMP280;63269;53.330;-6.288;2023-03-24T03:45:00;98473.69;;;20.05
74750;BMP280;63269;53.330;-6.288;2023-03-24T03:47:25;98473.69;;;20.05
74750;BMP280;63269;53.330;-6.288;2023-03-24T03:49:51;98476.13;;;20.03
74750;BMP280;63269;53.330;-6.288;2023-03-24T03:52:17;98466.19;;;20.03
74750;BMP280;63269;53.330;-6.288;2023-03-24T03:54:43;98466.19;;;20.03
74750;BMP280;63269;53.330;-6.288;2023-03-24T03:57:11;98468.84;;;20.03
74750;BMP280;63269;53.330;-6.288;2023-03-24T03:59:38;98473.47;;;20.03
74750;BMP280;63269;53.330;-6.288;2023-03-24T04:02:32;98473.47;;;20.03
74750;BMP280;63269;53.330;-6.288;2023-03-24T04:16:41;98461.59;;;19.98
74750;BMP280;63269;53.330;-6.288;2023-03-24T04:29:59;98475.38;;;19.96
74750;BMP280;63269;53.330;-6.288;2023-03-24T04:35:03;98472.72;;;19.96
74750;BMP280;63269;53.330;-6.288;2023-03-24T04:37:32;98478.03;;;19.96
74750;BMP280;63269;53.330;-6.288;2023-03-24T04:40:05;98478.03;;;19.96
74750;BMP280;63269;53.330;-6.288;2023-03-24T04:42:38;98492.06;;;19.97
74750;BMP280;63269;53.330;-6.288;2023-03-24T04:45:05;98494.72;;;19.97
74750;BMP280;63269;53.330;-6.288;2023-03-24T04:47:37;98496.66;;;19.96
74750;BMP280;63269;53.330;-6.288;2023-03-24T04:50:09;98474.66;;;19.96
74750;BMP280;63269;53.330;-6.288;2023-03-24T04:52:41;98483.34;;;19.96
74750;BMP280;63269;53.330;-6.288;2023-03-24T04:55:29;98486.03;;;19.96
74750;BMP280;63269;53.330;-6.288;2023-03-24T04:57:56;98486.03;;;19.96
74750;BMP280;63269;53.330;-6.288;2023-03-24T05:00:22;98467.63;;;19.93
74750;BMP280;63269;53.330;-6.288;2023-03-24T05:02:48;98476.31;;;19.93
74750;BMP280;63269;53.330;-6.288;2023-03-24T05:05:16;98490.38;;;19.94
74750;BMP280;63269;53.330;-6.288;2023-03-24T05:07:42;98491.81;;;19.95
74750;BMP280;63269;53.330;-6.288;2023-03-24T05:10:09;98487.72;;;19.94
74750;BMP280;63269;53.330;-6.288;2023-03-24T05:12:34;98487.72;;;19.94
74750;BMP280;63269;53.330;-6.288;2023-03-24T05:15:00;98498.09;;;19.92
74750;BMP280;63269;53.330;-6.288;2023-03-24T05:17:26;98489.41;;;19.91
74750;BMP280;63269;53.330;-6.288;2023-03-24T05:19:51;98513.56;;;19.93
74750;BMP280;63269;53.330;-6.288;2023-03-24T05:22:17;98491.56;;;19.93
74750;BMP280;63269;53.330;-6.288;2023-03-24T05:24:42;98491.56;;;19.93
74750;BMP280;63269;53.330;-6.288;2023-03-24T05:27:07;98502.91;;;19.93
74750;BMP280;63269;53.330;-6.288;2023-03-24T05:29:33;98503.19;;;19.95
74750;BMP280;63269;53.330;-6.288;2023-03-24T05:31:58;98502.94;;;19.99
74750;BMP280;63269;53.330;-6.288;2023-03-24T05:34:24;98511.91;;;20.02
74750;BMP280;63269;53.330;-6.288;2023-03-24T05:36:49;98522.81;;;20.09
74750;BMP280;63269;53.330;-6.288;2023-03-24T05:39:15;98522.81;;;20.09
74750;BMP280;63269;53.330;-6.288;2023-03-24T05:41:40;98519.22;;;20.12
74750;BMP280;63269;53.330;-6.288;2023-03-24T05:44:06;98526.94;;;20.16
74750;BMP280;63269;53.330;-6.288;2023-03-24T05:46:31;98526.94;;;20.16
74750;BMP280;63269;53.330;-6.288;2023-03-24T05:48:56;98522.34;;;20.16
74750;BMP280;63269;53.330;-6.288;2023-03-24T05:51:22;98524.75;;;20.20
74750;BMP280;63269;53.330;-6.288;2023-03-24T05:53:47;98524.75;;;20.20
74750;BMP280;63269;53.330;-6.288;2023-03-24T05:56:13;98519.72;;;20.22
74750;BMP280;63269;53.330;-6.288;2023-03-24T05:58:38;98519.72;;;20.22
74750;BMP280;63269;53.330;-6.288;2023-03-24T06:01:08;98509.06;;;20.28
74750;BMP280;63269;53.330;-6.288;2023-03-24T06:03:34;98509.06;;;20.28
74750;BMP280;63269;53.330;-6.288;2023-03-24T06:06:06;98525.78;;;20.34
74750;BMP280;63269;53.330;-6.288;2023-03-24T06:08:32;98525.78;;;20.34
74750;BMP280;63269;53.330;-6.288;2023-03-24T06:11:02;98524.56;;;20.41
74750;BMP280;63269;53.330;-6.288;2023-03-24T06:13:30;98532.31;;;20.44
74750;BMP280;63269;53.330;-6.288;2023-03-24T06:15:57;98532.31;;;20.44
74750;BMP280;63269;53.330;-6.288;2023-03-24T06:18:25;98520.22;;;20.49
74750;BMP280;63269;53.330;-6.288;2023-03-24T06:20:52;98533.03;;;20.50
74750;BMP280;63269;53.330;-6.288;2023-03-24T06:23:24;98533.03;;;20.50
74750;BMP280;63269;53.330;-6.288;2023-03-24T06:25:53;98534.28;;;20.55
74750;BMP280;63269;53.330;-6.288;2023-03-24T06:28:20;98534.28;;;20.55
74750;BMP280;63269;53.330;-6.288;2023-03-24T06:30:46;98518.78;;;20.59
74750;BMP280;63269;53.330;-6.288;2023-03-24T06:33:13;98527.72;;;20.62
74750;BMP280;63269;53.330;-6.288;2023-03-24T06:35:39;98527.72;;;20.62
74750;BMP280;63269;53.330;-6.288;2023-03-24T06:38:05;98531.34;;;20.64
74750;BMP280;63269;53.330;-6.288;2023-03-24T06:40:31;98541.53;;;20.66
74750;BMP280;63269;53.330;-6.288;2023-03-24T06:42:57;98541.53;;;20.66
74750;BMP280;63269;53.330;-6.288;2023-03-24T06:45:23;98552.69;;;20.70
74750;BMP280;63269;53.330;-6.288;2023-03-24T06:47:51;98552.69;;;20.70
74750;BMP280;63269;53.330;-6.288;2023-03-24T06:50:19;98558.25;;;20.72
74750;BMP280;63269;53.330;-6.288;2023-03-24T06:52:45;98558.25;;;20.72
74750;BMP280;63269;53.330;-6.288;2023-03-24T06:55:11;98575.44;;;20.76
74750;BMP280;63269;53.330;-6.288;2023-03-24T06:57:36;98563.59;;;20.77
74750;BMP280;63269;53.330;-6.288;2023-03-24T07:00:03;98563.59;;;20.77
74750;BMP280;63269;53.330;-6.288;2023-03-24T07:02:30;98572.28;;;20.78
74750;BMP280;63269;53.330;-6.288;2023-03-24T07:05:01;98579.78;;;20.79
74750;BMP280;63269;53.330;-6.288;2023-03-24T07:07:30;98585.81;;;20.80
74750;BMP280;63269;53.330;-6.288;2023-03-24T07:09:55;98575.44;;;20.82
74750;BMP280;63269;53.330;-6.288;2023-03-24T07:12:21;98583.66;;;20.84
74750;BMP280;63269;53.330;-6.288;2023-03-24T07:14:46;98585.41;;;20.87
74750;BMP280;63269;53.330;-6.288;2023-03-24T07:17:12;98586.09;;;20.88
74750;BMP280;63269;53.330;-6.288;2023-03-24T07:19:37;98589.75;;;20.90
74750;BMP280;63269;53.330;-6.288;2023-03-24T07:22:02;98589.75;;;20.90
74750;BMP280;63269;53.330;-6.288;2023-03-24T07:24:28;98573.00;;;20.90
74750;BMP280;63269;53.330;-6.288;2023-03-24T07:26:53;98583.66;;;20.95
74750;BMP280;63269;53.330;-6.288;2023-03-24T07:29:19;98582.97;;;20.95
74750;BMP280;63269;53.330;-6.288;2023-03-24T07:31:44;98586.34;;;20.95
74750;BMP280;63269;53.330;-6.288;2023-03-24T07:34:13;98586.34;;;20.95
74750;BMP280;63269;53.330;-6.288;2023-03-24T07:36:38;98586.56;;;20.97
74750;BMP280;63269;53.330;-6.288;2023-03-24T07:39:04;98581.25;;;20.97
74750;BMP280;63269;53.330;-6.288;2023-03-24T07:41:29;98581.25;;;20.97
74750;BMP280;63269;53.330;-6.288;2023-03-24T07:43:54;98589.72;;;21.02
74750;BMP280;63269;53.330;-6.288;2023-03-24T07:46:20;98581.25;;;21.03
74750;BMP280;63269;53.330;-6.288;2023-03-24T07:48:46;98591.41;;;21.05
74750;BMP280;63269;53.330;-6.288;2023-03-24T07:51:11;98586.81;;;21.05
74750;BMP280;63269;53.330;-6.288;2023-03-24T07:53:37;98585.84;;;21.08
74750;BMP280;63269;53.330;-6.288;2023-03-24T07:56:02;98583.91;;;21.09
74750;BMP280;63269;53.330;-6.288;2023-03-24T07:58:28;98592.63;;;21.09
74750;BMP280;63269;53.330;-6.288;2023-03-24T08:00:53;98589.94;;;21.09
74750;BMP280;63269;53.330;-6.288;2023-03-24T08:03:19;98602.09;;;21.10
74750;BMP280;63269;53.330;-6.288;2023-03-24T08:05:50;98594.31;;;21.12
74750;BMP280;63269;53.330;-6.288;2023-03-24T08:08:16;98597.00;;;21.12
74750;BMP280;63269;53.330;-6.288;2023-03-24T08:10:41;98595.75;;;21.13
74750;BMP280;63269;53.330;-6.288;2023-03-24T08:13:06;98586.56;;;21.14
74750;BMP280;63269;53.330;-6.288;2023-03-24T08:15:32;98584.63;;;21.15
74750;BMP280;63269;53.330;-6.288;2023-03-24T08:17:58;98587.28;;;21.15
74750;BMP280;63269;53.330;-6.288;2023-03-24T08:20:23;98582.91;;;21.17
74750;BMP280;63269;53.330;-6.288;2023-03-24T08:22:51;98574.22;;;21.17
74750;BMP280;63269;53.330;-6.288;2023-03-24T08:25:20;98589.72;;;21.18
74750;BMP280;63269;53.330;-6.288;2023-03-24T08:27:45;98587.78;;;21.19
74750;BMP280;63269;53.330;-6.288;2023-03-24T08:30:19;98581.97;;;21.20
74750;BMP280;63269;53.330;-6.288;2023-03-24T08:32:47;98589.97;;;21.20
74750;BMP280;63269;53.330;-6.288;2023-03-24T08:35:14;98586.78;;;21.22
74750;BMP280;63269;53.330;-6.288;2023-03-24T08:37:41;98594.78;;;21.22
74750;BMP280;63269;53.330;-6.288;2023-03-24T08:40:13;98586.31;;;21.24
74750;BMP280;63269;53.330;-6.288;2023-03-24T08:42:42;98582.91;;;21.23
74750;BMP280;63269;53.330;-6.288;2023-03-24T08:45:10;98588.47;;;21.25
74750;BMP280;63269;53.330;-6.288;2023-03-24T08:47:36;98614.44;;;21.25
74750;BMP280;63269;53.330;-6.288;2023-03-24T08:50:02;98573.22;;;21.26
74750;BMP280;63269;53.330;-6.288;2023-03-24T08:52:29;98579.28;;;21.26
74750;BMP280;63269;53.330;-6.288;2023-03-24T08:54:54;98584.59;;;21.26
74750;BMP280;63269;53.330;-6.288;2023-03-24T08:57:20;98584.13;;;21.28
74750;BMP280;63269;53.330;-6.288;2023-03-24T08:59:46;98567.41;;;21.27
74750;BMP280;63269;53.330;-6.288;2023-03-24T09:02:12;98581.69;;;21.30
74750;BMP280;63269;53.330;-6.288;2023-03-24T09:04:38;98577.09;;;21.30
74750;BMP280;63269;53.330;-6.288;2023-03-24T09:07:03;98571.75;;;21.30
74750;BMP280;63269;53.330;-6.288;2023-03-24T09:09:30;98559.88;;;21.31
74750;BMP280;63269;53.330;-6.288;2023-03-24T09:11:56;98559.88;;;21.31
74750;BMP280;63269;53.330;-6.288;2023-03-24T09:14:21;98591.88;;;21.31
74750;BMP280;63269;53.330;-6.288;2023-03-24T09:16:47;98591.88;;;21.31
74750;BMP280;63269;53.330;-6.288;2023-03-24T09:19:15;98584.59;;;21.32
74750;BMP280;63269;53.330;-6.288;2023-03-24T09:21:43;98570.56;;;21.31
74750;BMP280;63269;53.330;-6.288;2023-03-24T09:24:09;98571.28;;;21.32
74750;BMP280;63269;53.330;-6.288;2023-03-24T09:26:34;98571.28;;;21.32
74750;BMP280;63269;53.330;-6.288;2023-03-24T09:29:00;98571.75;;;21.30
74750;BMP280;63269;53.330;-6.288;2023-03-24T09:31:26;98579.03;;;21.30
74750;BMP280;63269;53.330;-6.288;2023-03-24T09:33:52;98576.88;;;21.28
74750;BMP280;63269;53.330;-6.288;2023-03-24T09:36:17;98572.00;;;21.27
74750;BMP280;63269;53.330;-6.288;2023-03-24T09:38:43;98579.28;;;21.26
74750;BMP280;63269;53.330;-6.288;2023-03-24T09:41:27;98579.78;;;21.25
74750;BMP280;63269;53.330;-6.288;2023-03-24T09:44:30;98581.47;;;21.22
74750;BMP280;63269;53.330;-6.288;2023-03-24T09:47:06;98581.47;;;21.22
74750;BMP280;63269;53.330;-6.288;2023-03-24T09:49:37;98565.25;;;21.20
74750;BMP280;63269;53.330;-6.288;2023-03-24T09:52:08;98551.66;;;21.18
74750;BMP280;63269;53.330;-6.288;2023-03-24T09:54:53;98551.66;;;21.18
74750;BMP280;63269;53.330;-6.288;2023-03-24T09:57:23;98535.44;;;21.16
74750;BMP280;63269;53.330;-6.288;2023-03-24T09:59:50;98538.13;;;21.16
74750;BMP280;63269;53.330;-6.288;2023-03-24T10:02:18;98547.06;;;21.18
74750;BMP280;63269;53.330;-6.288;2023-03-24T10:04:45;98539.78;;;21.19
74750;BMP280;63269;53.330;-6.288;2023-03-24T10:07:27;98539.78;;;21.19
74750;BMP280;63269;53.330;-6.288;2023-03-24T10:09:56;98533.47;;;21.22
74750;BMP280;63269;53.330;-6.288;2023-03-24T10:12:38;98541.94;;;21.26
74750;BMP280;63269;53.330;-6.288;2023-03-24T10:20:35;98551.38;;;21.38
74750;BMP280;63269;53.330;-6.288;2023-03-24T10:28:28;98512.06;;;21.56
74750;BMP280;63269;53.330;-6.288;2023-03-24T10:30:56;98532.19;;;21.57
74750;BMP280;63269;53.330;-6.288;2023-03-24T10:33:25;98532.19;;;21.57
74750;BMP280;63269;53.330;-6.288;2023-03-24T10:36:04;98526.84;;;21.57
74750;BMP280;63269;53.330;-6.288;2023-03-24T10:38:30;98520.06;;;21.56
74750;BMP280;63269;53.330;-6.288;2023-03-24T10:40:56;98520.06;;;21.56
74750;BMP280;63269;53.330;-6.288;2023-03-24T10:43:22;98511.84;;;21.54
74750;BMP280;63269;53.330;-6.288;2023-03-24T10:45:51;98510.38;;;21.53
74750;BMP280;63269;53.330;-6.288;2023-03-24T10:48:33;98490.72;;;21.50
74750;BMP280;63269;53.330;-6.288;2023-03-24T10:50:59;98490.72;;;21.50
74750;BMP280;63269;53.330;-6.288;2023-03-24T10:53:24;98496.34;;;21.47
74750;BMP280;63269;53.330;-6.288;2023-03-24T10:55:50;98491.72;;;21.47
74750;BMP280;63269;53.330;-6.288;2023-03-24T11:00:59;98485.19;;;21.43
74750;BMP280;63269;53.330;-6.288;2023-03-24T11:03:30;98485.19;;;21.43
74750;BMP280;63269;53.330;-6.288;2023-03-24T11:05:58;98473.09;;;21.42
74750;BMP280;63269;53.330;-6.288;2023-03-24T11:08:32;98476.97;;;21.40
74750;BMP280;63269;53.330;-6.288;2023-03-24T11:10:58;98471.41;;;21.38
74750;BMP280;63269;53.330;-6.288;2023-03-24T11:13:29;98471.13;;;21.42
74750;BMP280;63269;53.330;-6.288;2023-03-24T11:16:09;98488.59;;;21.43
74750;BMP280;63269;53.330;-6.288;2023-03-24T11:18:36;98456.59;;;21.43
74750;BMP280;63269;53.330;-6.288;2023-03-24T11:21:04;98452.91;;;21.46
74750;BMP280;63269;53.330;-6.288;2023-03-24T11:23:40;98465.78;;;21.48
74750;BMP280;63269;53.330;-6.288;2023-03-24T11:26:17;98474.03;;;21.50
74750;BMP280;63269;53.330;-6.288;2023-03-24T11:28:56;98462.09;;;21.51
74750;BMP280;63269;53.330;-6.288;2023-03-24T11:31:26;98457.53;;;21.51
74750;BMP280;63269;53.330;-6.288;2023-03-24T11:34:12;98460.44;;;21.53
74750;BMP280;63269;53.330;-6.288;2023-03-24T11:36:54;98474.50;;;21.54
74750;BMP280;63269;53.330;-6.288;2023-03-24T11:39:24;98459.19;;;21.54
74750;BMP280;63269;53.330;-6.288;2023-03-24T11:47:10;98455.78;;;21.59
74750;BMP280;63269;53.330;-6.288;2023-03-24T11:49:52;98471.31;;;21.61
74750;BMP280;63269;53.330;-6.288;2023-03-24T11:52:23;98455.31;;;21.61
74750;BMP280;63269;53.330;-6.288;2023-03-24T11:54:50;98456.03;;;21.61
74750;BMP280;63269;53.330;-6.288;2023-03-24T11:58:09;98458.94;;;21.64
74750;BMP280;63269;53.330;-6.288;2023-03-24T12:13:40;98422.03;;;21.68
74750;BMP280;63269;53.330;-6.288;2023-03-24T12:24:16;98411.09;;;21.71
74750;BMP280;63269;53.330;-6.288;2023-03-24T12:26:43;98405.47;;;21.75
74750;BMP280;63269;53.330;-6.288;2023-03-24T12:29:19;98398.72;;;21.74
74750;BMP280;63269;53.330;-6.288;2023-03-24T12:46:43;98404.00;;;21.79
74750;BMP280;63269;53.330;-6.288;2023-03-24T12:52:52;98388.72;;;21.80
74750;BMP280;63269;53.330;-6.288;2023-03-24T12:55:42;98403.53;;;21.81
74750;BMP280;63269;53.330;-6.288;2023-03-24T13:00:56;98414.41;;;21.83
74750;BMP280;63269;53.330;-6.288;2023-03-24T13:03:32;98413.91;;;21.85
74750;BMP280;63269;53.330;-6.288;2023-03-24T13:06:10;98401.31;;;21.85
74750;BMP280;63269;53.330;-6.288;2023-03-24T13:08:38;98401.31;;;21.85
74750;BMP280;63269;53.330;-6.288;2023-03-24T13:11:09;98422.88;;;21.87
74750;BMP280;63269;53.330;-6.288;2023-03-24T13:13:38;98389.66;;;21.88
74750;BMP280;63269;53.330;-6.288;2023-03-24T13:16:12;98385.78;;;21.89
74750;BMP280;63269;53.330;-6.288;2023-03-24T13:18:45;98382.34;;;21.89
74750;BMP280;63269;53.330;-6.288;2023-03-24T13:21:16;98380.44;;;21.89
74750;BMP280;63269;53.330;-6.288;2023-03-24T13:31:43;98374.34;;;21.89
74750;BMP280;63269;53.330;-6.288;2023-03-24T13:34:21;98404.44;;;21.89
74750;BMP280;63269;53.330;-6.288;2023-03-24T13:36:51;98427.97;;;21.91
74750;BMP280;63269;53.330;-6.288;2023-03-24T13:39:21;98419.22;;;21.90
74750;BMP280;63269;53.330;-6.288;2023-03-24T13:41:50;98433.31;;;21.91
74750;BMP280;63269;53.330;-6.288;2023-03-24T13:44:19;98408.03;;;21.92
74750;BMP280;63269;53.330;-6.288;2023-03-24T13:47:11;98410.50;;;21.90
74750;BMP280;63269;53.330;-6.288;2023-03-24T13:49:38;98417.31;;;21.91
74750;BMP280;63269;53.330;-6.288;2023-03-24T13:52:05;98429.38;;;21.92
74750;BMP280;63269;53.330;-6.288;2023-03-24T13:54:38;98434.00;;;21.91
74750;BMP280;63269;53.330;-6.288;2023-03-24T13:57:19;98432.06;;;21.92
74750;BMP280;63269;53.330;-6.288;2023-03-24T14:00:17;98438.66;;;21.91
74750;BMP280;63269;53.330;-6.288;2023-03-24T14:03:30;98455.34;;;21.91
74750;BMP280;63269;53.330;-6.288;2023-03-24T14:05:57;98433.31;;;21.91
74750;BMP280;63269;53.330;-6.288;2023-03-24T14:09:03;98446.66;;;21.91
74750;BMP280;63269;53.330;-6.288;2023-03-24T14:14:16;98470.16;;;21.92
74750;BMP280;63269;53.330;-6.288;2023-03-24T14:16:49;98474.28;;;21.93
74750;BMP280;63269;53.330;-6.288;2023-03-24T14:19:20;98459.47;;;21.92
74750;BMP280;63269;53.330;-6.288;2023-03-24T14:22:33;98436.94;;;21.93
74750;BMP280;63269;53.330;-6.288;2023-03-24T14:25:05;98424.78;;;21.92
74750;BMP280;63269;53.330;-6.288;2023-03-24T14:27:43;98428.91;;;21.93
74750;BMP280;63269;53.330;-6.288;2023-03-24T14:32:48;98451.72;;;21.94
74750;BMP280;63269;53.330;-6.288;2023-03-24T14:35:28;98436.41;;;21.95
74750;BMP280;63269;53.330;-6.288;2023-03-24T14:37:56;98437.19;;;21.90
74750;BMP280;63269;53.330;-6.288;2023-03-24T14:40:33;98420.91;;;21.93
74750;BMP280;63269;53.330;-6.288;2023-03-24T14:43:23;98429.13;;;21.95
74750;BMP280;63269;53.330;-6.288;2023-03-24T14:45:53;98431.78;;;21.95
74750;BMP280;63269;53.330;-6.288;2023-03-24T14:51:32;98424.00;;;21.97
74750;BMP280;63269;53.330;-6.288;2023-03-24T14:54:22;98421.81;;;22.01
74750;BMP280;63269;53.330;-6.288;2023-03-24T14:56:53;98400.47;;;22.01
74750;BMP280;63269;53.330;-6.288;2023-03-24T14:59:28;98424.41;;;22.07
74750;BMP280;63269;53.330;-6.288;2023-03-24T15:02:10;98420.06;;;22.10
74750;BMP280;63269;53.330;-6.288;2023-03-24T15:04:38;98398.19;;;22.11
74750;BMP280;63269;53.330;-6.288;2023-03-24T15:07:03;98405.69;;;22.13
74750;BMP280;63269;53.330;-6.288;2023-03-24T15:09:30;98404.69;;;22.16
74750;BMP280;63269;53.330;-6.288;2023-03-24T15:11:58;98419.72;;;22.19
74750;BMP280;63269;53.330;-6.288;2023-03-24T15:14:24;98406.59;;;22.21
74750;BMP280;63269;53.330;-6.288;2023-03-24T15:16:53;98425.53;;;22.23
74750;BMP280;63269;53.330;-6.288;2023-03-24T15:19:21;98392.25;;;22.24
74750;BMP280;63269;53.330;-6.288;2023-03-24T15:24:35;98405.34;;;22.28
74750;BMP280;63269;53.330;-6.288;2023-03-24T15:29:33;98406.31;;;22.30
74750;BMP280;63269;53.330;-6.288;2023-03-24T15:31:59;98411.66;;;22.30
74750;BMP280;63269;53.330;-6.288;2023-03-24T15:37:02;98401.88;;;22.33
74750;BMP280;63269;53.330;-6.288;2023-03-24T15:39:32;98427.38;;;22.34
74750;BMP280;63269;53.330;-6.288;2023-03-24T15:41:58;98430.03;;;22.34
74750;BMP280;63269;53.330;-6.288;2023-03-24T15:44:28;98427.84;;;22.38
74750;BMP280;63269;53.330;-6.288;2023-03-24T15:46:58;98413.25;;;22.39
74750;BMP280;63269;53.330;-6.288;2023-03-24T15:49:32;98431.44;;;22.40
74750;BMP280;63269;53.330;-6.288;2023-03-24T15:54:47;98414.94;;;22.42
74750;BMP280;63269;53.330;-6.288;2023-03-24T15:57:20;98424.59;;;22.45
74750;BMP280;63269;53.330;-6.288;2023-03-24T15:59:54;98419.25;;;22.45
74750;BMP280;63269;53.330;-6.288;2023-03-24T16:02:36;98382.81;;;22.48
74750;BMP280;63269;53.330;-6.288;2023-03-24T16:05:16;98424.81;;;22.47
74750;BMP280;63269;53.330;-6.288;2023-03-24T16:07:43;98415.13;;;22.44
74750;BMP280;63269;53.330;-6.288;2023-03-24T16:10:39;98411.47;;;22.47
74750;BMP280;63269;53.330;-6.288;2023-03-24T16:13:18;98400.78;;;22.47
74750;BMP280;63269;53.330;-6.288;2023-03-24T16:15:47;98416.31;;;22.49
74750;BMP280;63269;53.330;-6.288;2023-03-24T16:18:20;98412.91;;;22.48
74750;BMP280;63269;53.330;-6.288;2023-03-24T16:20:46;98407.06;;;22.50
74750;BMP280;63269;53.330;-6.288;2023-03-24T16:23:12;98412.41;;;22.50
74750;BMP280;63269;53.330;-6.288;2023-03-24T16:25:38;98417.75;;;22.50
74750;BMP280;63269;53.330;-6.288;2023-03-24T16:28:03;98415.84;;;22.50
74750;BMP280;63269;53.330;-6.288;2023-03-24T16:30:34;98413.34;;;22.52
74750;BMP280;63269;53.330;-6.288;2023-03-24T16:33:02;98411.44;;;22.53
74750;BMP280;63269;53.330;-6.288;2023-03-24T16:35:28;98391.50;;;22.54
74750;BMP280;63269;53.330;-6.288;2023-03-24T16:37:54;98426.22;;;22.54